createdAt,value
2019-03-12T00:01:00.276Z,84.34
2019-03-12T00:02:00.810Z,84.55
2019-03-12T00:03:01.287Z,84.55
2019-03-12T00:04:01.749Z,84.44
2019-03-12T00:05:02.215Z,84.65
2019-03-12T00:06:02.672Z,84.55
2019-03-12T00:07:03.146Z,84.65
2019-03-12T00:08:03.669Z,84.23
2019-03-12T00:09:04.182Z,84.65
2019-03-12T00:10:04.630Z,84.69
2019-03-12T00:11:05.163Z,84.69
2019-03-12T00:12:05.606Z,84.59
2019-03-12T00:13:06.168Z,84.80
2019-03-12T00:14:06.613Z,84.90
2019-03-12T00:15:07.086Z,84.69
2019-03-12T00:16:07.553Z,84.59
2019-03-12T00:17:08.044Z,84.59
2019-03-12T00:18:08.484Z,84.80
2019-03-12T00:19:08.962Z,85.00
2019-03-12T00:20:09.416Z,84.59
2019-03-12T00:21:09.928Z,84.69
2019-03-12T00:22:10.366Z,85.00
2019-03-12T00:23:10.826Z,84.90
2019-03-12T00:24:11.263Z,84.69
2019-03-12T00:25:11.787Z,85.00
2019-03-12T00:26:12.292Z,84.63
2019-03-12T00:27:12.797Z,85.11
2019-03-12T00:28:13.241Z,85.11
2019-03-12T00:29:13.735Z,84.90
2019-03-12T00:30:14.174Z,85.04
2019-03-12T00:31:14.705Z,85.00
2019-03-12T00:32:15.145Z,85.00
2019-03-12T00:33:15.607Z,85.00
2019-03-12T00:34:16.073Z,84.80
2019-03-12T00:35:17.561Z,85.00
2019-03-12T00:36:18.024Z,85.04
2019-03-12T00:37:18.496Z,84.73
2019-03-12T00:38:18.933Z,84.83
2019-03-12T00:39:19.435Z,85.04
2019-03-12T00:40:19.878Z,84.94
2019-03-12T00:41:20.398Z,84.94
2019-03-12T00:42:20.855Z,84.94
2019-03-12T00:43:21.451Z,85.04
2019-03-12T00:44:21.896Z,84.73
2019-03-12T00:45:22.441Z,85.04
2019-03-12T00:46:22.895Z,84.83
2019-03-12T00:47:24.405Z,84.63
2019-03-12T00:48:24.839Z,84.83
2019-03-12T00:49:25.340Z,85.04
2019-03-12T00:50:25.839Z,85.08
2019-03-12T00:51:26.406Z,84.94
2019-03-12T00:52:26.845Z,84.83
2019-03-12T00:53:27.312Z,85.14
2019-03-12T00:54:27.756Z,85.35
2019-03-12T00:55:28.236Z,85.04
2019-03-12T00:56:28.701Z,84.73
2019-03-12T00:57:29.170Z,85.08
2019-03-12T00:58:29.605Z,85.19
2019-03-12T00:59:30.105Z,84.77
2019-03-12T01:00:30.539Z,85.04
2019-03-12T01:01:31.073Z,84.98
2019-03-12T01:02:31.512Z,84.98
2019-03-12T01:03:31.988Z,84.88
2019-03-12T01:04:32.445Z,84.98
2019-03-12T01:05:33.023Z,85.19
2019-03-12T01:06:33.490Z,85.19
2019-03-12T01:07:33.948Z,85.08
2019-03-12T01:08:34.386Z,85.08
2019-03-12T01:09:34.883Z,84.88
2019-03-12T01:10:35.325Z,85.08
2019-03-12T01:11:35.857Z,85.19
2019-03-12T01:12:36.300Z,85.08
2019-03-12T01:13:36.749Z,85.08
2019-03-12T01:14:37.185Z,85.08
2019-03-12T01:15:37.632Z,85.19
2019-03-12T01:16:38.137Z,85.08
2019-03-12T01:17:38.610Z,85.08
2019-03-12T01:18:39.153Z,85.08
2019-03-12T01:19:39.603Z,85.08
2019-03-12T01:20:40.091Z,84.88
2019-03-12T01:21:40.558Z,84.98
2019-03-12T01:22:41.107Z,85.08
2019-03-12T01:23:41.545Z,84.98
2019-03-12T01:24:43.069Z,84.98
2019-03-12T01:25:43.512Z,85.19
2019-03-12T01:26:44.036Z,84.98
2019-03-12T01:27:44.493Z,84.98
2019-03-12T01:28:45.039Z,84.88
2019-03-12T01:29:45.472Z,85.19
2019-03-12T01:30:45.973Z,85.08
2019-03-12T01:31:46.432Z,84.98
2019-03-12T01:32:46.917Z,85.08
2019-03-12T01:33:47.375Z,85.08
2019-03-12T01:34:47.854Z,85.12
2019-03-12T01:35:48.332Z,85.12
2019-03-12T01:36:48.811Z,84.91
2019-03-12T01:37:49.250Z,85.33
2019-03-12T01:38:49.721Z,85.12
2019-03-12T01:39:50.167Z,85.02
2019-03-12T01:40:50.646Z,85.19
2019-03-12T01:41:51.095Z,85.12
2019-03-12T01:42:52.595Z,85.22
2019-03-12T01:43:53.212Z,85.02
2019-03-12T01:44:53.741Z,85.12
2019-03-12T01:45:54.192Z,85.12
2019-03-12T01:46:54.715Z,85.02
2019-03-12T01:47:55.154Z,85.22
2019-03-12T01:48:55.614Z,85.12
2019-03-12T01:49:56.045Z,85.22
2019-03-12T01:50:56.550Z,85.12
2019-03-12T01:51:57.007Z,85.22
2019-03-12T01:52:57.492Z,85.05
2019-03-12T01:53:57.935Z,85.12
2019-03-12T01:54:58.418Z,84.91
2019-03-12T01:55:58.854Z,85.12
2019-03-12T01:56:59.385Z,84.91
2019-03-12T01:57:59.829Z,84.91
2019-03-12T01:59:00.283Z,84.95
2019-03-12T02:00:00.714Z,85.16
2019-03-12T02:01:02.251Z,85.02
2019-03-12T02:02:02.710Z,85.12
2019-03-12T02:03:03.176Z,85.05
2019-03-12T02:04:03.629Z,85.12
2019-03-12T02:05:04.112Z,85.16
2019-03-12T02:06:04.575Z,85.16
2019-03-12T02:07:05.080Z,85.16
2019-03-12T02:08:05.520Z,85.12
2019-03-12T02:09:05.985Z,84.95
2019-03-12T02:10:06.425Z,85.05
2019-03-12T02:11:06.928Z,85.16
2019-03-12T02:12:07.391Z,84.95
2019-03-12T02:13:07.851Z,85.16
2019-03-12T02:14:08.291Z,85.16
2019-03-12T02:15:08.786Z,84.99
2019-03-12T02:16:09.314Z,85.16
2019-03-12T02:17:09.855Z,85.16
2019-03-12T02:18:10.289Z,85.26
2019-03-12T02:19:10.769Z,84.99
2019-03-12T02:20:11.205Z,85.10
2019-03-12T02:21:11.694Z,84.99
2019-03-12T02:22:12.167Z,85.20
2019-03-12T02:23:12.640Z,84.89
2019-03-12T02:24:13.087Z,84.89
2019-03-12T02:25:13.616Z,84.78
2019-03-12T02:26:14.068Z,84.78
2019-03-12T02:27:14.682Z,85.20
2019-03-12T02:28:15.132Z,84.99
2019-03-12T02:29:15.635Z,84.99
2019-03-12T02:30:16.105Z,85.30
2019-03-12T02:31:16.674Z,85.30
2019-03-12T02:32:17.165Z,85.20
2019-03-12T02:33:17.715Z,84.99
2019-03-12T02:34:18.172Z,85.20
2019-03-12T02:35:18.670Z,85.10
2019-03-12T02:36:19.112Z,85.30
2019-03-12T02:37:19.628Z,85.10
2019-03-12T02:38:20.066Z,85.10
2019-03-12T02:39:20.616Z,85.10
2019-03-12T02:40:21.069Z,85.20
2019-03-12T02:41:21.662Z,85.10
2019-03-12T02:42:22.123Z,85.10
2019-03-12T02:43:22.588Z,85.13
2019-03-12T02:44:23.038Z,85.20
2019-03-12T02:45:23.533Z,85.03
2019-03-12T02:46:24.004Z,85.55
2019-03-12T02:47:24.499Z,85.24
2019-03-12T02:48:24.968Z,85.30
2019-03-12T02:49:25.508Z,84.99
2019-03-12T02:50:25.985Z,85.03
2019-03-12T02:51:26.527Z,84.92
2019-03-12T02:52:26.988Z,85.10
2019-03-12T02:53:27.468Z,85.24
2019-03-12T02:54:27.916Z,85.24
2019-03-12T02:55:28.511Z,85.24
2019-03-12T02:56:28.961Z,85.03
2019-03-12T02:57:29.474Z,85.24
2019-03-12T02:58:29.963Z,85.13
2019-03-12T02:59:30.473Z,85.34
2019-03-12T03:00:30.926Z,85.24
2019-03-12T03:01:31.432Z,85.24
2019-03-12T03:02:31.890Z,85.24
2019-03-12T03:03:32.759Z,85.03
2019-03-12T03:04:33.208Z,84.82
2019-03-12T03:05:33.700Z,84.92
2019-03-12T03:06:34.176Z,84.92
2019-03-12T03:07:34.665Z,84.92
2019-03-12T03:08:35.103Z,85.34
2019-03-12T03:09:35.669Z,85.24
2019-03-12T03:10:36.107Z,85.34
2019-03-12T03:11:36.600Z,85.24
2019-03-12T03:12:37.104Z,84.92
2019-03-12T03:13:37.643Z,84.92
2019-03-12T03:14:38.090Z,84.92
2019-03-12T03:15:38.696Z,84.82
2019-03-12T03:16:39.152Z,84.82
2019-03-12T03:17:39.683Z,85.13
2019-03-12T03:18:40.165Z,84.92
2019-03-12T03:19:40.638Z,85.34
2019-03-12T03:20:41.109Z,84.92
2019-03-12T03:21:41.724Z,84.82
2019-03-12T03:22:42.190Z,85.24
2019-03-12T03:23:43.741Z,84.86
2019-03-12T03:24:44.191Z,85.13
2019-03-12T03:25:44.678Z,85.03
2019-03-12T03:26:45.124Z,85.03
2019-03-12T03:27:45.660Z,84.92
2019-03-12T03:28:46.119Z,84.92
2019-03-12T03:29:46.656Z,85.03
2019-03-12T03:30:47.138Z,84.92
2019-03-12T03:31:47.679Z,84.92
2019-03-12T03:32:48.159Z,85.17
2019-03-12T03:33:48.738Z,84.86
2019-03-12T03:34:49.207Z,84.82
2019-03-12T03:35:49.753Z,85.13
2019-03-12T03:36:50.190Z,84.92
2019-03-12T03:37:50.777Z,85.03
2019-03-12T03:38:51.240Z,84.96
2019-03-12T03:39:51.733Z,84.92
2019-03-12T03:40:52.192Z,85.38
2019-03-12T03:41:52.676Z,85.03
2019-03-12T03:42:53.467Z,84.92
2019-03-12T03:43:54.006Z,85.24
2019-03-12T03:44:54.449Z,85.03
2019-03-12T03:45:54.948Z,85.17
2019-03-12T03:46:55.413Z,84.86
2019-03-12T03:47:55.912Z,84.92
2019-03-12T03:48:56.421Z,84.96
2019-03-12T03:49:56.914Z,85.28
2019-03-12T03:50:57.355Z,85.38
2019-03-12T03:51:57.847Z,84.82
2019-03-12T03:52:58.302Z,85.03
2019-03-12T03:53:58.776Z,84.82
2019-03-12T03:54:59.226Z,84.92
2019-03-12T03:55:59.709Z,85.03
2019-03-12T03:57:00.332Z,85.13
2019-03-12T03:58:00.896Z,84.72
2019-03-12T03:59:01.349Z,84.72
2019-03-12T04:00:01.899Z,84.72
2019-03-12T04:01:02.415Z,85.13
2019-03-12T04:02:02.957Z,84.82
2019-03-12T04:03:03.579Z,84.92
2019-03-12T04:04:08.988Z,84.61
2019-03-12T04:05:09.426Z,84.82
2019-03-12T04:06:09.876Z,84.72
2019-03-12T04:07:10.329Z,84.72
2019-03-12T04:08:10.959Z,84.72
2019-03-12T04:09:11.402Z,84.82
2019-03-12T04:10:11.892Z,84.72
2019-03-12T04:11:12.353Z,85.03
2019-03-12T04:12:12.822Z,84.78
2019-03-12T04:13:13.286Z,84.47
2019-03-12T04:14:14.781Z,84.47
2019-03-12T04:15:15.270Z,84.41
2019-03-12T04:16:15.810Z,84.72
2019-03-12T04:17:16.259Z,84.61
2019-03-12T04:18:16.792Z,84.61
2019-03-12T04:19:17.249Z,84.51
2019-03-12T04:20:17.822Z,84.72
2019-03-12T04:21:18.288Z,84.51
2019-03-12T04:22:18.859Z,84.37
2019-03-12T04:23:19.318Z,84.20
2019-03-12T04:24:19.858Z,84.16
2019-03-12T04:25:20.343Z,84.05
2019-03-12T04:26:20.901Z,84.47
2019-03-12T04:27:21.353Z,84.20
2019-03-12T04:28:21.877Z,84.27
2019-03-12T04:29:22.331Z,84.37
2019-03-12T04:30:22.868Z,84.05
2019-03-12T04:31:23.319Z,84.27
2019-03-12T04:32:23.812Z,84.05
2019-03-12T04:33:24.274Z,84.05
2019-03-12T04:34:24.719Z,84.16
2019-03-12T04:35:25.203Z,84.05
2019-03-12T04:36:25.672Z,83.95
2019-03-12T04:37:26.125Z,83.95
2019-03-12T04:38:26.535Z,84.05
2019-03-12T04:39:26.983Z,83.74
2019-03-12T04:40:27.557Z,84.05
2019-03-12T04:41:28.007Z,84.05
2019-03-12T04:42:28.475Z,83.84
2019-03-12T04:43:28.928Z,83.74
2019-03-12T04:44:29.424Z,83.91
2019-03-12T04:45:29.862Z,83.84
2019-03-12T04:46:30.356Z,83.74
2019-03-12T04:47:30.801Z,83.53
2019-03-12T04:48:31.319Z,83.84
2019-03-12T04:49:31.768Z,83.74
2019-03-12T04:50:32.350Z,83.95
2019-03-12T04:51:32.811Z,83.95
2019-03-12T04:52:33.393Z,83.64
2019-03-12T04:53:33.871Z,83.95
2019-03-12T04:54:34.411Z,83.95
2019-03-12T04:55:34.860Z,84.05
2019-03-12T04:56:35.424Z,83.84
2019-03-12T04:57:35.865Z,83.74
2019-03-12T04:58:36.405Z,84.05
2019-03-12T04:59:36.862Z,83.95
2019-03-12T05:00:37.393Z,83.95
2019-03-12T05:01:37.839Z,83.84
2019-03-12T05:02:38.328Z,83.95
2019-03-12T05:03:38.796Z,83.74
2019-03-12T05:04:39.247Z,83.60
2019-03-12T05:05:39.692Z,83.64
2019-03-12T05:06:40.195Z,83.74
2019-03-12T05:07:40.637Z,83.64
2019-03-12T05:08:41.167Z,83.60
2019-03-12T05:09:41.610Z,83.18
2019-03-12T05:10:42.066Z,83.39
2019-03-12T05:11:42.499Z,83.29
2019-03-12T05:12:42.999Z,83.29
2019-03-12T05:13:43.458Z,82.98
2019-03-12T05:14:43.935Z,83.08
2019-03-12T05:15:44.374Z,82.98
2019-03-12T05:16:44.870Z,82.87
2019-03-12T05:17:45.313Z,83.08
2019-03-12T05:18:45.841Z,82.98
2019-03-12T05:19:46.287Z,82.77
2019-03-12T05:20:46.736Z,82.77
2019-03-12T05:21:47.186Z,82.77
2019-03-12T05:22:47.758Z,82.77
2019-03-12T05:23:48.267Z,82.87
2019-03-12T05:24:48.809Z,82.87
2019-03-12T05:25:49.402Z,82.56
2019-03-12T05:26:49.899Z,82.56
2019-03-12T05:27:50.342Z,82.67
2019-03-12T05:28:50.919Z,82.91
2019-03-12T05:29:51.353Z,82.87
2019-03-12T05:30:51.820Z,82.67
2019-03-12T05:31:52.302Z,83.01
2019-03-12T05:32:52.759Z,82.60
2019-03-12T05:33:53.232Z,82.81
2019-03-12T05:34:53.688Z,82.70
2019-03-12T05:35:54.123Z,83.01
2019-03-12T05:36:54.642Z,83.01
2019-03-12T05:37:55.082Z,82.91
2019-03-12T05:38:55.601Z,82.81
2019-03-12T05:39:56.050Z,83.22
2019-03-12T05:40:56.598Z,83.33
2019-03-12T05:41:57.043Z,83.43
2019-03-12T05:42:57.527Z,83.43
2019-03-12T05:43:57.985Z,83.12
2019-03-12T05:44:58.463Z,82.81
2019-03-12T05:45:58.967Z,83.12
2019-03-12T05:46:59.512Z,83.33
2019-03-12T05:47:59.972Z,83.33
2019-03-12T05:49:00.472Z,82.70
2019-03-12T05:50:00.922Z,82.91
2019-03-12T05:51:01.369Z,82.91
2019-03-12T05:52:01.806Z,82.81
2019-03-12T05:53:02.303Z,82.81
2019-03-12T05:54:02.768Z,82.91
2019-03-12T05:55:03.248Z,83.01
2019-03-12T05:56:03.712Z,82.91
2019-03-12T05:57:04.172Z,83.22
2019-03-12T05:58:04.612Z,83.01
2019-03-12T05:59:05.138Z,82.70
2019-03-12T06:00:05.580Z,82.98
2019-03-12T06:01:06.039Z,82.67
2019-03-12T06:02:06.480Z,82.77
2019-03-12T06:03:06.978Z,81.84
2019-03-12T06:04:07.437Z,82.46
2019-03-12T06:05:07.910Z,82.15
2019-03-12T06:06:08.354Z,82.46
2019-03-12T06:07:08.848Z,82.15
2019-03-12T06:08:09.300Z,82.11
2019-03-12T06:09:09.845Z,82.01
2019-03-12T06:10:10.282Z,82.11
2019-03-12T06:11:10.856Z,81.59
2019-03-12T06:12:11.305Z,81.59
2019-03-12T06:13:11.857Z,81.49
2019-03-12T06:14:12.318Z,81.80
2019-03-12T06:15:12.791Z,81.59
2019-03-12T06:16:13.230Z,81.38
2019-03-12T06:17:13.723Z,81.18
2019-03-12T06:18:14.163Z,81.35
2019-03-12T06:19:14.700Z,80.87
2019-03-12T06:20:15.151Z,80.62
2019-03-12T06:21:15.699Z,80.83
2019-03-12T06:22:16.143Z,80.73
2019-03-12T06:23:16.595Z,81.24
2019-03-12T06:24:17.070Z,80.83
2019-03-12T06:25:17.587Z,80.62
2019-03-12T06:26:18.052Z,80.62
2019-03-12T06:27:18.528Z,80.83
2019-03-12T06:28:18.980Z,80.21
2019-03-12T06:29:19.488Z,81.10
2019-03-12T06:30:19.944Z,80.16
2019-03-12T06:31:20.393Z,80.06
2019-03-12T06:32:20.966Z,79.44
2019-03-12T06:33:24.129Z,79.75
2019-03-12T06:34:24.903Z,79.34
2019-03-12T06:35:25.341Z,79.65
2019-03-12T06:36:25.903Z,79.96
2019-03-12T06:37:26.347Z,79.75
2019-03-12T06:38:26.945Z,79.85
2019-03-12T06:39:27.413Z,79.41
2019-03-12T06:40:27.979Z,79.41
2019-03-12T06:41:28.432Z,79.51
2019-03-12T06:42:29.024Z,79.30
2019-03-12T06:43:29.466Z,79.61
2019-03-12T06:44:30.120Z,78.78
2019-03-12T06:45:30.567Z,78.68
2019-03-12T06:46:31.211Z,78.78
2019-03-12T06:47:31.667Z,79.06
2019-03-12T06:48:32.235Z,79.20
2019-03-12T06:49:32.735Z,79.16
2019-03-12T06:50:35.348Z,79.16
2019-03-12T06:51:35.798Z,78.64
2019-03-12T06:52:36.384Z,78.85
2019-03-12T06:53:36.830Z,78.92
2019-03-12T06:54:37.433Z,78.71
2019-03-12T06:55:41.003Z,78.81
2019-03-12T06:56:41.696Z,78.16
2019-03-12T06:57:42.298Z,77.64
2019-03-12T06:58:42.734Z,77.70
2019-03-12T06:59:44.377Z,78.12
2019-03-12T07:00:44.821Z,77.50
2019-03-12T07:01:47.325Z,77.50
2019-03-12T07:02:47.762Z,77.47
2019-03-12T07:03:48.197Z,77.05
2019-03-12T07:04:48.664Z,77.36
2019-03-12T07:05:49.110Z,77.64
2019-03-12T07:06:49.574Z,77.43
2019-03-12T07:07:50.100Z,77.01
2019-03-12T07:08:50.686Z,76.70
2019-03-12T07:09:51.153Z,76.81
2019-03-12T07:10:51.719Z,76.56
2019-03-12T07:11:52.174Z,76.46
2019-03-12T07:12:52.759Z,76.77
2019-03-12T07:13:53.200Z,75.98
2019-03-12T07:14:53.684Z,76.81
2019-03-12T07:15:54.124Z,76.70
2019-03-12T07:16:54.731Z,77.01
2019-03-12T07:17:55.171Z,76.70
2019-03-12T07:18:55.776Z,76.91
2019-03-12T07:19:56.239Z,76.91
2019-03-12T07:20:58.855Z,76.39
2019-03-12T07:21:59.496Z,76.77
2019-03-12T07:22:59.999Z,76.36
2019-03-12T07:24:00.511Z,76.67
2019-03-12T07:25:00.966Z,76.56
2019-03-12T07:26:01.413Z,76.67
2019-03-12T07:27:01.849Z,76.73
2019-03-12T07:28:02.512Z,77.08
2019-03-12T07:29:02.955Z,76.73
2019-03-12T07:30:03.434Z,76.73
2019-03-12T07:31:04.127Z,76.73
2019-03-12T07:32:04.617Z,76.64
2019-03-12T07:33:05.255Z,76.01
2019-03-12T07:34:05.691Z,75.81
2019-03-12T07:35:06.272Z,76.22
2019-03-12T07:36:06.724Z,75.81
2019-03-12T07:37:07.387Z,75.81
2019-03-12T07:38:07.831Z,76.12
2019-03-12T07:39:08.272Z,76.18
2019-03-12T07:40:08.878Z,75.77
2019-03-12T07:41:22.812Z,75.57
2019-03-12T07:42:15.740Z,75.87
2019-03-12T07:43:23.914Z,75.26
2019-03-12T07:44:24.359Z,74.84
2019-03-12T07:45:24.981Z,75.26
2019-03-12T07:46:25.466Z,75.12
2019-03-12T07:47:35.339Z,75.12
2019-03-12T07:48:32.344Z,75.15
2019-03-12T07:49:32.964Z,75.22
2019-03-12T07:50:33.417Z,75.01
2019-03-12T07:51:34.001Z,75.12
2019-03-12T07:52:34.439Z,75.12
2019-03-12T07:53:35.065Z,74.98
2019-03-12T07:54:35.505Z,74.81
2019-03-12T07:55:36.113Z,74.40
2019-03-12T07:56:36.620Z,74.67
2019-03-12T07:57:37.217Z,74.57
2019-03-12T07:58:37.666Z,74.36
2019-03-12T07:59:38.155Z,74.05
2019-03-12T08:00:38.627Z,74.26
2019-03-12T08:01:40.116Z,74.19
2019-03-12T08:02:40.552Z,74.19
2019-03-12T08:03:41.002Z,74.60
2019-03-12T08:04:43.594Z,74.40
2019-03-12T08:05:44.319Z,74.77
2019-03-12T08:06:44.884Z,74.57
2019-03-12T08:07:45.344Z,74.71
2019-03-12T08:08:45.792Z,74.36
2019-03-12T08:09:46.250Z,74.05
2019-03-12T08:10:46.703Z,74.57
2019-03-12T08:11:47.148Z,74.77
2019-03-12T08:12:47.686Z,74.88
2019-03-12T08:13:48.213Z,74.12
2019-03-12T08:14:48.665Z,74.02
2019-03-12T08:15:50.470Z,74.02
2019-03-12T08:16:51.120Z,73.50
2019-03-12T08:17:52.719Z,73.47
2019-03-12T08:18:53.177Z,73.71
2019-03-12T08:19:53.642Z,73.81
2019-03-12T08:20:54.192Z,73.71
2019-03-12T08:21:54.647Z,73.47
2019-03-12T08:22:55.104Z,73.98
2019-03-12T08:23:55.608Z,73.36
2019-03-12T08:24:56.238Z,73.57
2019-03-12T08:25:56.723Z,73.26
2019-03-12T08:26:58.332Z,73.16
2019-03-12T08:27:58.784Z,73.36
2019-03-12T08:28:59.337Z,73.13
2019-03-12T08:29:59.777Z,73.13
2019-03-12T08:31:00.240Z,72.92
2019-03-12T08:32:00.686Z,72.71
2019-03-12T08:33:01.132Z,72.81
2019-03-12T08:34:01.576Z,73.02
2019-03-12T08:35:02.038Z,72.81
2019-03-12T08:36:02.553Z,72.99
2019-03-12T08:37:03.026Z,72.68
2019-03-12T08:38:03.679Z,72.78
2019-03-12T08:39:04.113Z,72.58
2019-03-12T08:40:04.842Z,72.47
2019-03-12T08:41:05.318Z,72.37
2019-03-12T08:42:05.975Z,72.41
2019-03-12T08:43:06.422Z,72.71
2019-03-12T08:44:06.861Z,72.37
2019-03-12T08:45:11.250Z,72.58
2019-03-12T08:46:18.414Z,72.68
2019-03-12T08:47:21.337Z,72.75
2019-03-12T08:48:21.776Z,72.13
2019-03-12T08:49:22.220Z,71.92
2019-03-12T08:50:22.666Z,71.79
2019-03-12T08:51:23.131Z,71.79
2019-03-12T08:52:23.741Z,71.04
2019-03-12T08:53:24.191Z,71.55
2019-03-12T08:54:24.894Z,71.34
2019-03-12T08:55:25.357Z,71.00
2019-03-12T08:56:25.953Z,70.18
2019-03-12T08:57:26.402Z,69.56
2019-03-12T08:58:27.063Z,70.36
2019-03-12T08:59:27.505Z,69.53
2019-03-12T09:00:27.975Z,69.32
2019-03-12T09:01:28.425Z,69.64
2019-03-12T09:02:28.869Z,69.53
2019-03-12T09:03:29.354Z,69.02
2019-03-12T09:04:29.811Z,68.78
2019-03-12T09:05:30.248Z,68.81
2019-03-12T09:06:30.725Z,68.78
2019-03-12T09:07:31.252Z,68.99
2019-03-12T09:08:32.870Z,68.68
2019-03-12T09:09:33.316Z,68.16
2019-03-12T09:10:33.765Z,68.88
2019-03-12T09:11:34.309Z,68.37
2019-03-12T09:12:34.811Z,68.27
2019-03-12T09:13:35.254Z,68.48
2019-03-12T09:14:35.785Z,68.16
2019-03-12T09:15:36.231Z,67.76
2019-03-12T09:16:37.790Z,67.11
2019-03-12T09:17:38.266Z,67.44
2019-03-12T09:18:39.795Z,67.35
2019-03-12T09:19:40.234Z,67.32
2019-03-12T09:20:41.753Z,67.11
2019-03-12T09:21:42.249Z,67.11
2019-03-12T09:22:42.793Z,67.21
2019-03-12T09:23:43.236Z,66.90
2019-03-12T09:24:43.688Z,66.67
2019-03-12T09:25:44.378Z,66.25
2019-03-12T09:26:44.861Z,65.64
2019-03-12T09:27:45.381Z,65.20
2019-03-12T09:28:45.822Z,64.89
2019-03-12T09:31:01.752Z,65.10
2019-03-12T09:32:02.333Z,64.48
2019-03-12T09:33:02.771Z,65.10
2019-03-12T09:34:03.219Z,64.65
2019-03-12T09:35:03.677Z,65.07
2019-03-12T09:36:04.128Z,64.86
2019-03-12T09:37:04.600Z,64.04
2019-03-12T09:38:05.203Z,63.64
2019-03-12T09:39:05.752Z,63.02
2019-03-12T09:40:06.237Z,62.51
2019-03-12T09:41:06.676Z,63.09
2019-03-12T09:42:07.231Z,62.99
2019-03-12T09:43:07.717Z,63.40
2019-03-12T09:44:10.258Z,63.60
2019-03-12T09:45:10.698Z,62.24
2019-03-12T09:46:11.231Z,62.27
2019-03-12T09:47:11.669Z,62.48
2019-03-12T09:48:12.333Z,62.30
2019-03-12T09:49:12.836Z,63.09
2019-03-12T09:50:13.379Z,63.29
2019-03-12T09:51:13.846Z,63.29
2019-03-12T09:52:14.408Z,62.92
2019-03-12T09:53:14.844Z,63.09
2019-03-12T09:54:15.351Z,62.92
2019-03-12T09:55:15.804Z,62.78
2019-03-12T09:56:20.824Z,62.45
2019-03-12T09:57:21.260Z,61.45
2019-03-12T09:58:22.756Z,61.73
2019-03-12T09:59:23.206Z,61.63
2019-03-12T10:00:23.748Z,61.76
2019-03-12T10:01:24.215Z,61.55
2019-03-12T10:02:26.811Z,61.55
2019-03-12T10:03:27.316Z,61.45
2019-03-12T10:04:28.001Z,61.76
2019-03-12T10:05:28.579Z,61.76
2019-03-12T10:06:29.123Z,61.01
2019-03-12T10:07:29.571Z,61.52
2019-03-12T10:08:30.131Z,61.01
2019-03-12T10:09:30.567Z,61.01
2019-03-12T10:10:32.189Z,60.68
2019-03-12T10:11:32.648Z,60.27
2019-03-12T10:12:33.226Z,59.86
2019-03-12T10:13:33.662Z,60.40
2019-03-12T10:14:34.105Z,59.76
2019-03-12T10:15:34.552Z,59.55
2019-03-12T10:16:35.160Z,59.12
2019-03-12T10:17:35.602Z,59.35
2019-03-12T10:18:36.136Z,59.22
2019-03-12T10:19:36.580Z,58.22
2019-03-12T10:20:37.171Z,58.25
2019-03-12T10:21:37.774Z,59.14
2019-03-12T10:22:38.325Z,59.38
2019-03-12T10:23:38.760Z,59.38
2019-03-12T10:24:40.376Z,60.06
2019-03-12T10:25:40.808Z,59.55
2019-03-12T10:26:42.489Z,58.94
2019-03-12T10:27:42.962Z,58.50
2019-03-12T10:28:44.499Z,58.91
2019-03-12T10:29:44.981Z,57.86
2019-03-12T10:30:45.535Z,57.89
2019-03-12T10:31:45.995Z,58.50
2019-03-12T10:32:46.578Z,58.40
2019-03-12T10:33:47.009Z,58.70
2019-03-12T10:34:47.612Z,58.43
2019-03-12T10:35:48.054Z,58.12
2019-03-12T10:36:48.682Z,57.61
2019-03-12T10:37:49.126Z,57.48
2019-03-12T10:38:49.648Z,56.97
2019-03-12T10:39:50.090Z,57.17
2019-03-12T10:40:50.681Z,56.87
2019-03-12T10:41:51.133Z,56.02
2019-03-12T10:42:51.727Z,55.41
2019-03-12T10:43:52.167Z,55.62
2019-03-12T10:44:53.684Z,55.82
2019-03-12T10:45:54.129Z,54.97
2019-03-12T10:46:54.655Z,55.08
2019-03-12T10:47:55.100Z,55.00
2019-03-12T10:48:55.763Z,54.16
2019-03-12T10:49:56.205Z,53.23
2019-03-12T10:50:57.721Z,53.21
2019-03-12T10:51:58.178Z,53.31
2019-03-12T10:52:58.683Z,53.83
2019-03-12T10:54:00.306Z,53.49
2019-03-12T10:55:12.421Z,52.75
2019-03-12T10:56:07.146Z,53.06
2019-03-12T10:57:07.601Z,53.06
2019-03-12T10:58:08.210Z,52.01
2019-03-12T10:59:08.648Z,52.62
2019-03-12T11:00:09.243Z,52.12
2019-03-12T11:01:09.675Z,51.89
2019-03-12T11:02:10.220Z,51.07
2019-03-12T11:03:10.662Z,51.38
2019-03-12T11:04:11.218Z,50.46
2019-03-12T11:05:11.659Z,50.74
2019-03-12T11:06:13.175Z,50.64
2019-03-12T11:07:16.855Z,50.54
2019-03-12T11:08:17.592Z,50.52
2019-03-12T11:09:18.043Z,50.21
2019-03-12T11:10:18.691Z,50.59
2019-03-12T11:11:19.288Z,50.39
2019-03-12T11:12:21.855Z,50.29
2019-03-12T11:13:22.302Z,49.25
2019-03-12T11:14:22.876Z,49.76
2019-03-12T11:15:23.317Z,48.84
2019-03-12T11:16:23.900Z,48.92
2019-03-12T11:17:24.355Z,48.51
2019-03-12T11:18:25.025Z,48.90
2019-03-12T11:19:25.485Z,47.27
2019-03-12T11:20:26.083Z,47.25
2019-03-12T11:21:26.568Z,48.57
2019-03-12T11:22:27.043Z,47.86
2019-03-12T11:23:27.480Z,47.66
2019-03-12T11:24:28.061Z,47.35
2019-03-12T11:25:28.531Z,47.67
2019-03-12T11:26:28.974Z,47.58
2019-03-12T11:27:29.541Z,47.78
2019-03-12T11:28:29.988Z,47.27
2019-03-12T11:29:31.583Z,46.45
2019-03-12T11:30:32.033Z,46.48
2019-03-12T11:31:32.582Z,46.30
2019-03-12T11:32:33.131Z,46.81
2019-03-12T11:33:33.720Z,46.60
2019-03-12T11:34:34.170Z,46.91
2019-03-12T11:35:39.332Z,46.50
2019-03-12T11:36:40.121Z,46.50
2019-03-12T11:37:40.853Z,45.99
2019-03-12T11:38:41.339Z,46.48
2019-03-12T11:39:41.990Z,45.06
2019-03-12T11:40:42.460Z,45.36
2019-03-12T11:41:43.361Z,44.73
2019-03-12T11:42:43.995Z,45.54
2019-03-12T11:43:44.580Z,45.21
2019-03-12T11:44:45.109Z,44.81
2019-03-12T11:45:45.763Z,44.18
2019-03-12T11:46:46.502Z,44.08
2019-03-12T11:47:47.205Z,43.77
2019-03-12T11:48:47.736Z,43.44
2019-03-12T11:49:50.373Z,42.84
2019-03-12T11:50:50.823Z,42.51
2019-03-12T11:51:51.421Z,41.99
2019-03-12T11:52:56.232Z,41.56
2019-03-12T11:53:58.472Z,40.65
2019-03-12T11:54:58.923Z,40.94
2019-03-12T11:55:59.535Z,40.95
2019-03-12T11:56:59.998Z,39.94
2019-03-12T11:58:00.673Z,40.04
2019-03-12T11:59:01.220Z,40.65
2019-03-12T12:00:02.036Z,40.36
2019-03-12T12:01:02.722Z,39.65
2019-03-12T12:02:03.235Z,40.67
2019-03-12T12:03:03.718Z,40.06
2019-03-12T12:04:10.823Z,40.36
2019-03-12T12:05:11.285Z,40.04
2019-03-12T12:06:11.882Z,40.34
2019-03-12T12:07:12.342Z,39.43
2019-03-12T12:08:13.109Z,39.43
2019-03-12T12:09:13.724Z,40.14
2019-03-12T12:10:15.376Z,39.73
2019-03-12T12:11:15.834Z,38.74
2019-03-12T12:12:16.412Z,39.45
2019-03-12T12:13:16.870Z,38.66
2019-03-12T12:14:17.457Z,37.95
2019-03-12T12:15:17.906Z,38.25
2019-03-12T12:16:18.489Z,38.88
2019-03-12T12:17:18.927Z,39.49
2019-03-12T12:18:19.557Z,39.17
2019-03-12T12:19:19.990Z,39.87
2019-03-12T12:20:29.426Z,39.18
2019-03-12T12:21:27.022Z,38.98
2019-03-12T12:22:27.590Z,39.71
2019-03-12T12:23:28.056Z,40.72
2019-03-12T12:24:28.733Z,40.01
2019-03-12T12:25:29.180Z,39.81
2019-03-12T12:26:29.769Z,40.54
2019-03-12T12:27:30.224Z,39.93
2019-03-12T12:28:31.445Z,38.83
2019-03-12T12:29:31.889Z,39.76
2019-03-12T12:30:39.316Z,39.78
2019-03-12T12:31:39.767Z,39.58
2019-03-12T12:32:40.349Z,40.48
2019-03-12T12:33:40.803Z,39.97
2019-03-12T12:34:42.309Z,39.64
2019-03-12T12:35:42.763Z,39.64
2019-03-12T12:36:44.271Z,39.22
2019-03-12T12:37:44.719Z,39.02
2019-03-12T12:38:45.247Z,39.02
2019-03-12T12:39:45.689Z,38.92
2019-03-12T12:40:48.188Z,39.14
2019-03-12T12:41:48.739Z,39.85
2019-03-12T12:43:12.302Z,40.17
2019-03-12T12:44:12.755Z,39.56
2019-03-12T12:45:13.303Z,39.58
2019-03-12T12:46:13.754Z,39.48
2019-03-12T12:47:14.343Z,39.28
2019-03-12T12:48:14.795Z,40.30
2019-03-12T12:49:15.379Z,39.58
2019-03-12T12:50:15.826Z,40.39
2019-03-12T12:51:37.398Z,39.36
2019-03-12T12:52:37.837Z,39.14
2019-03-12T12:54:14.824Z,40.16
2019-03-12T12:55:15.276Z,39.61
2019-03-12T12:56:22.821Z,39.30
2019-03-12T12:57:23.272Z,38.49
2019-03-12T12:58:31.816Z,38.49
2019-03-12T12:59:32.292Z,38.39
2019-03-12T13:00:32.755Z,38.39
2019-03-12T13:01:33.197Z,38.18
2019-03-12T13:02:35.666Z,37.78
2019-03-12T13:03:36.119Z,38.29
2019-03-12T13:04:36.705Z,37.78